Time;durP1;ratioP1;P1;durP2;ratioP2;P2;SDS_P1;SDS_P2;PMS_P1;PMS_P2;Temp;Humidity;BMP_temperature;BMP_pressure;BME280_temperature;BME280_humidity;BME280_pressure;Samples;Min_cycle;Max_cycle;Signal;HPM_P1;HPM_P2
2022/05/18 00:01:46;;;;;;;3.93;3.63;;;17.80;99.90;;;;;;6028658;23;20538;-79
2022/05/18 00:04:13;;;;;;;3.23;2.93;;;17.80;99.90;;;;;;6028483;23;20448;-79
2022/05/18 00:06:39;;;;;;;4.07;3.67;;;17.80;99.90;;;;;;6021474;23;20536;-79
2022/05/18 00:09:06;;;;;;;4.40;3.93;;;17.80;99.90;;;;;;6023612;23;20527;-79
2022/05/18 00:11:35;;;;;;;3.90;3.60;;;17.80;99.90;;;;;;6029682;23;20452;-79
2022/05/18 00:14:02;;;;;;;3.80;3.37;;;17.70;99.90;;;;;;6018459;23;20480;-79
2022/05/18 00:16:29;;;;;;;4.07;3.67;;;17.60;99.90;;;;;;6031073;23;22222;-79
2022/05/18 00:18:56;;;;;;;4.67;4.10;;;17.60;99.90;;;;;;6030657;23;20466;-79
2022/05/18 00:21:24;;;;;;;4.13;3.70;;;17.60;99.90;;;;;;6031300;23;20531;-79
2022/05/18 00:23:51;;;;;;;4.17;3.73;;;17.50;99.90;;;;;;6032467;23;20525;-79
2022/05/18 00:26:18;;;;;;;3.90;3.60;;;17.60;99.90;;;;;;6031538;23;20862;-79
2022/05/18 00:28:46;;;;;;;4.00;3.70;;;17.50;99.90;;;;;;6029091;23;20804;-79
2022/05/18 00:31:15;;;;;;;3.93;3.60;;;17.50;99.90;;;;;;6026320;23;20934;-79
2022/05/18 00:33:42;;;;;;;4.83;4.10;;;17.40;99.90;;;;;;6027866;23;20812;-79
2022/05/18 00:36:09;;;;;;;4.00;3.70;;;17.40;99.90;;;;;;6030610;23;20535;-79
2022/05/18 00:38:36;;;;;;;4.07;3.77;;;17.40;99.90;;;;;;6024951;23;20444;-79
2022/05/18 00:41:04;;;;;;;4.20;3.83;;;17.30;99.90;;;;;;6034192;23;20444;-79
2022/05/18 00:43:40;;;;;;;4.80;4.40;;;17.30;99.90;;;;;;6027834;23;20494;-79
2022/05/18 00:46:12;;;;;;;3.90;3.60;;;17.30;99.90;;;;;;6028595;23;20474;-79
2022/05/18 00:48:40;;;;;;;5.17;3.27;;;17.30;99.90;;;;;;6025673;23;20553;-79
2022/05/18 00:51:13;;;;;;;4.13;3.83;;;17.30;99.90;;;;;;6031039;23;20440;-79
2022/05/18 00:53:43;;;;;;;4.20;3.90;;;17.30;99.90;;;;;;6029503;23;20515;-79
2022/05/18 00:56:13;;;;;;;4.10;3.80;;;17.30;99.90;;;;;;6029869;23;20802;-79
2022/05/18 00:58:46;;;;;;;4.50;4.20;;;17.30;99.90;;;;;;6030265;23;20452;-79
2022/05/18 01:01:15;;;;;;;4.27;3.97;;;17.20;99.90;;;;;;6032813;23;20437;-79
2022/05/18 01:03:45;;;;;;;4.80;4.40;;;17.20;99.90;;;;;;6029632;23;20472;-79
2022/05/18 01:06:17;;;;;;;4.10;3.67;;;17.10;99.90;;;;;;6028852;23;20440;-79
2022/05/18 01:08:51;;;;;;;4.37;3.93;;;17.10;99.90;;;;;;6030427;23;21010;-79
2022/05/18 01:11:18;;;;;;;4.90;4.50;;;17.00;99.90;;;;;;6033643;23;20455;-79
2022/05/18 01:13:46;;;;;;;5.13;4.57;;;16.90;99.90;;;;;;6027263;23;20977;-79
2022/05/18 01:16:15;;;;;;;4.80;4.50;;;16.80;99.90;;;;;;6028745;23;21039;-79
2022/05/18 01:18:43;;;;;;;6.90;4.93;;;16.70;99.90;;;;;;6032698;23;20523;-79
2022/05/18 01:21:10;;;;;;;4.63;4.10;;;16.70;99.90;;;;;;6032413;23;20948;-79
2022/05/18 01:23:49;;;;;;;5.23;4.83;;;16.60;99.90;;;;;;6028536;23;20468;-79
2022/05/18 01:26:22;;;;;;;4.77;4.20;;;16.60;99.90;;;;;;6024283;23;20444;-79
2022/05/18 01:28:56;;;;;;;5.57;4.90;;;16.60;99.90;;;;;;6032562;23;20514;-79
2022/05/18 01:31:42;;;;;;;4.90;4.50;;;16.50;99.90;;;;;;6028748;23;20540;-79
2022/05/18 01:34:09;;;;;;;4.87;4.47;;;16.50;99.90;;;;;;6025251;23;20551;-79
2022/05/18 01:36:36;;;;;;;5.30;4.90;;;16.50;99.90;;;;;;6030386;23;20936;-79
2022/05/18 01:39:04;;;;;;;5.13;4.80;;;16.50;99.90;;;;;;6031066;23;20445;-78
2022/05/18 01:41:34;;;;;;;5.57;5.03;;;16.40;99.90;;;;;;6032704;23;20444;-79
2022/05/18 01:44:04;;;;;;;5.40;5.00;;;16.40;99.90;;;;;;6030282;23;20503;-79
2022/05/18 01:46:33;;;;;;;4.83;4.43;;;16.40;99.90;;;;;;6029596;23;20444;-79
2022/05/18 01:48:59;;;;;;;4.50;4.20;;;16.30;99.90;;;;;;6030972;23;20530;-79
2022/05/18 01:51:32;;;;;;;5.07;4.67;;;16.30;99.90;;;;;;6032250;23;20938;-78
2022/05/18 01:53:59;;;;;;;4.80;4.40;;;16.30;99.90;;;;;;6029034;23;20495;-79
2022/05/18 01:56:26;;;;;;;5.87;4.37;;;16.30;99.90;;;;;;6030826;23;20471;-79
2022/05/18 01:58:53;;;;;;;4.93;4.50;;;16.20;99.90;;;;;;6029085;23;20479;-79
2022/05/18 02:01:21;;;;;;;5.60;5.10;;;16.20;99.90;;;;;;6028355;23;20535;-79
2022/05/18 02:03:49;;;;;;;4.53;4.13;;;16.20;99.90;;;;;;6029811;23;20458;-79
2022/05/18 02:06:17;;;;;;;5.33;4.83;;;16.20;99.90;;;;;;6030785;23;20444;-79
2022/05/18 02:08:43;;;;;;;5.30;4.80;;;16.20;99.90;;;;;;6027198;23;20808;-78
2022/05/18 02:11:12;;;;;;;5.13;4.73;;;16.20;99.90;;;;;;6028087;23;20523;-79
2022/05/18 02:13:39;;;;;;;5.10;4.60;;;16.10;99.90;;;;;;6026919;23;21005;-79
2022/05/18 02:16:06;;;;;;;5.20;4.70;;;16.20;99.90;;;;;;6028744;23;20444;-79
2022/05/18 02:18:35;;;;;;;5.10;4.70;;;16.10;99.90;;;;;;6031288;23;20464;-79
2022/05/18 02:21:03;;;;;;;5.40;4.90;;;16.00;99.90;;;;;;6029559;23;20927;-79
2022/05/18 02:23:30;;;;;;;4.97;4.57;;;16.00;99.90;;;;;;6031045;23;20503;-79
2022/05/18 02:25:58;;;;;;;5.83;5.43;;;16.10;99.90;;;;;;6030482;23;20444;-79
2022/05/18 02:28:25;;;;;;;5.77;5.37;;;16.00;99.90;;;;;;6030491;23;20456;-79
2022/05/18 02:30:52;;;;;;;5.30;4.90;;;16.00;99.90;;;;;;6029422;23;20460;-79
2022/05/18 02:33:19;;;;;;;4.40;4.10;;;16.00;99.90;;;;;;6031456;23;20464;-79
2022/05/18 02:35:48;;;;;;;5.73;5.23;;;16.00;99.90;;;;;;6029226;23;20504;-79
2022/05/18 02:38:15;;;;;;;5.27;4.77;;;15.90;99.90;;;;;;6031478;23;20595;-79
2022/05/18 02:40:42;;;;;;;5.93;5.43;;;15.80;99.90;;;;;;6031166;23;20860;-79
2022/05/18 02:43:09;;;;;;;6.20;4.93;;;15.80;99.90;;;;;;6031048;23;20459;-78
2022/05/18 02:45:36;;;;;;;6.10;5.40;;;15.80;99.90;;;;;;6028047;23;20471;-79
2022/05/18 02:48:05;;;;;;;7.73;5.17;;;15.70;99.90;;;;;;6022595;23;20478;-79
2022/05/18 02:50:33;;;;;;;5.50;5.10;;;15.70;99.90;;;;;;6030085;23;20456;-78
2022/05/18 02:53:01;;;;;;;5.80;5.30;;;15.70;99.90;;;;;;6027546;23;20464;-78
2022/05/18 02:58:13;;;;;;;5.30;4.80;;;15.60;99.90;;;;;;6029069;23;20447;-79
2022/05/18 03:00:40;;;;;;;5.47;5.00;;;15.70;99.90;;;;;;6027124;23;20551;-79
2022/05/18 03:03:07;;;;;;;5.23;4.83;;;15.70;99.90;;;;;;6029747;23;20467;-79
2022/05/18 03:05:34;;;;;;;5.47;5.07;;;15.70;99.90;;;;;;6020925;23;20808;-79
2022/05/18 03:08:02;;;;;;;5.80;5.30;;;15.70;99.90;;;;;;6031267;23;20476;-79
2022/05/18 03:10:29;;;;;;;5.80;5.30;;;15.70;99.90;;;;;;6028921;23;20444;-79
2022/05/18 03:12:56;;;;;;;5.30;4.80;;;15.70;99.90;;;;;;6029354;23;20495;-79
2022/05/18 03:15:23;;;;;;;5.87;5.37;;;15.70;99.90;;;;;;6016622;23;20968;-79
2022/05/18 03:17:50;;;;;;;6.80;5.70;;;15.70;99.90;;;;;;6027871;23;20450;-79
2022/05/18 03:25:43;;;;;;;6.60;5.90;;;15.60;99.90;;;;;;6008891;23;20591;-79
2022/05/18 03:28:10;;;;;;;6.80;6.20;;;15.60;99.90;;;;;;6030047;23;20452;-79
2022/05/18 03:30:37;;;;;;;7.23;6.63;;;15.60;99.90;;;;;;6027297;23;20444;-79
2022/05/18 03:33:04;;;;;;;7.97;7.07;;;15.50;99.90;;;;;;6029457;23;20460;-78
2022/05/18 03:35:31;;;;;;;8.80;7.90;;;15.50;99.90;;;;;;6031147;23;20467;-79
2022/05/18 03:37:59;;;;;;;7.77;7.10;;;15.50;99.90;;;;;;6019959;23;20440;-79
2022/05/18 03:40:27;;;;;;;7.80;7.00;;;15.50;99.90;;;;;;6032278;23;20456;-79
2022/05/18 03:42:55;;;;;;;8.80;8.00;;;15.50;99.90;;;;;;6032143;23;20452;-79
2022/05/18 03:45:22;;;;;;;7.73;7.03;;;15.40;99.90;;;;;;6026756;23;20444;-79
2022/05/18 03:47:49;;;;;;;8.83;7.93;;;15.50;99.90;;;;;;6027694;23;20443;-79
2022/05/18 03:50:17;;;;;;;8.20;7.40;;;15.40;99.90;;;;;;6031683;23;20459;-79
2022/05/18 03:52:45;;;;;;;9.03;8.03;;;15.40;99.90;;;;;;6032071;23;20551;-79
2022/05/18 03:55:12;;;;;;;8.80;7.90;;;15.50;99.90;;;;;;6022574;23;20480;-79
2022/05/18 03:57:39;;;;;;;8.90;8.10;;;15.50;99.90;;;;;;6029453;23;21042;-79
2022/05/18 04:00:08;;;;;;;8.13;7.53;;;15.40;99.90;;;;;;6028123;23;20472;-79
2022/05/18 04:02:35;;;;;;;9.37;8.43;;;15.40;99.90;;;;;;6025863;23;20479;-79
2022/05/18 04:05:02;;;;;;;10.47;9.40;;;15.40;99.90;;;;;;6036718;22;21493;-74
2022/05/18 04:07:29;;;;;;;8.80;7.60;;;15.40;99.90;;;;;;6032334;23;20446;-75
2022/05/18 04:09:56;;;;;;;11.17;9.43;;;15.40;99.90;;;;;;6029443;23;20443;-75
2022/05/18 04:12:23;;;;;;;9.73;8.80;;;15.40;99.90;;;;;;6047273;23;20984;-75
2022/05/18 04:14:54;;;;;;;9.10;8.30;;;15.40;99.90;;;;;;6056902;23;20497;-75
2022/05/18 04:17:22;;;;;;;8.77;7.93;;;15.50;99.90;;;;;;6052692;23;20521;-76
2022/05/18 04:19:49;;;;;;;8.93;8.03;;;15.50;99.90;;;;;;6044982;23;20519;-76
2022/05/18 04:22:16;;;;;;;9.20;8.30;;;15.50;99.90;;;;;;6056632;23;20463;-74
2022/05/18 04:24:43;;;;;;;8.90;8.20;;;15.60;99.90;;;;;;6063301;23;20443;-74
2022/05/18 04:27:10;;;;;;;9.43;8.53;;;15.60;99.90;;;;;;6060769;23;20949;-74
2022/05/18 04:29:38;;;;;;;8.83;8.00;;;15.50;99.90;;;;;;6061507;23;20444;-74
2022/05/18 04:32:06;;;;;;;9.83;8.77;;;15.50;99.90;;;;;;6050091;23;20471;-74
2022/05/18 04:34:34;;;;;;;10.13;8.83;;;15.50;99.90;;;;;;6059176;23;20440;-74
2022/05/18 04:37:01;;;;;;;8.97;8.17;;;15.50;99.90;;;;;;6057504;23;20448;-74
2022/05/18 04:39:28;;;;;;;9.67;8.30;;;15.50;99.90;;;;;;6062878;23;20474;-74
2022/05/18 04:41:55;;;;;;;8.77;7.93;;;15.50;99.90;;;;;;6067037;23;20996;-75
2022/05/18 04:44:22;;;;;;;9.87;8.87;;;15.50;99.90;;;;;;6064994;23;20934;-75
2022/05/18 04:46:49;;;;;;;10.07;9.10;;;15.60;99.90;;;;;;6039893;23;20438;-71
2022/05/18 04:49:17;;;;;;;10.37;9.37;;;15.60;99.90;;;;;;6044277;23;20529;-72
2022/05/18 04:51:45;;;;;;;9.43;8.50;;;15.70;99.90;;;;;;6051926;23;20458;-71
2022/05/18 04:54:12;;;;;;;9.47;8.57;;;15.70;99.90;;;;;;6053819;23;20443;-74
2022/05/18 04:56:39;;;;;;;9.13;8.23;;;15.80;99.90;;;;;;6051705;23;20542;-73
2022/05/18 04:59:06;;;;;;;8.23;7.53;;;15.90;99.90;;;;;;6057210;23;20432;-73
2022/05/18 05:01:34;;;;;;;8.30;7.50;;;16.00;99.90;;;;;;6051541;23;20458;-73
2022/05/18 05:04:01;;;;;;;9.97;8.90;;;16.10;99.90;;;;;;6039784;23;20447;-72
2022/05/18 05:06:28;;;;;;;7.93;7.23;;;16.20;99.90;;;;;;6046891;23;20526;-73
2022/05/18 05:08:56;;;;;;;9.40;8.47;;;16.30;99.90;;;;;;6058534;23;20438;-72
2022/05/18 05:11:23;;;;;;;9.97;8.33;;;16.40;99.90;;;;;;6051604;23;20926;-73
2022/05/18 05:13:50;;;;;;;9.80;7.60;;;16.50;99.90;;;;;;6047856;23;20440;-73
2022/05/18 05:16:17;;;;;;;9.10;8.30;;;16.60;99.90;;;;;;6051428;23;20503;-72
2022/05/18 05:18:44;;;;;;;10.73;7.30;;;16.60;99.90;;;;;;6051216;23;20545;-72
2022/05/18 05:21:11;;;;;;;8.70;7.90;;;16.60;99.90;;;;;;6055167;23;20505;-72
2022/05/18 05:23:39;;;;;;;8.60;7.80;;;16.60;99.90;;;;;;6052872;23;21120;-72
2022/05/18 05:26:07;;;;;;;9.47;7.77;;;16.60;99.90;;;;;;6051166;23;20436;-72
2022/05/18 05:28:34;;;;;;;9.43;7.50;;;16.60;99.90;;;;;;6056622;23;20474;-73
2022/05/18 05:31:02;;;;;;;7.90;7.10;;;16.70;99.90;;;;;;6053069;23;20547;-72
2022/05/18 05:33:29;;;;;;;10.60;9.60;;;16.70;99.90;;;;;;6048002;23;20542;-72
2022/05/18 05:35:57;;;;;;;7.60;7.00;;;16.70;99.90;;;;;;6041599;23;20546;-72
2022/05/18 05:38:24;;;;;;;7.80;7.10;;;16.80;99.90;;;;;;6059681;23;20518;-77
2022/05/18 05:40:51;;;;;;;8.63;7.50;;;16.90;99.90;;;;;;6047432;23;20569;-77
2022/05/18 05:43:19;;;;;;;6.10;5.60;;;16.90;99.90;;;;;;6052124;23;20518;-74
2022/05/18 05:45:55;;;;;;;7.37;6.53;;;17.00;99.90;;;;;;6046051;23;20439;-81
2022/05/18 05:48:23;;;;;;;7.70;7.00;;;17.10;99.90;;;;;;6053920;23;20798;-76
2022/05/18 05:50:50;;;;;;;6.67;6.07;;;17.20;99.90;;;;;;6047411;23;20455;-76
2022/05/18 05:53:17;;;;;;;7.73;7.03;;;17.20;99.90;;;;;;6056162;23;20486;-76
2022/05/18 05:55:44;;;;;;;6.97;6.10;;;17.30;99.90;;;;;;6056942;23;20604;-76
2022/05/18 05:58:11;;;;;;;6.80;6.30;;;17.40;99.90;;;;;;6041328;23;20849;-76
2022/05/18 06:00:39;;;;;;;6.30;5.80;;;17.50;99.90;;;;;;6056970;23;20489;-75
2022/05/18 06:03:07;;;;;;;6.90;6.23;;;17.50;99.90;;;;;;6056875;23;20438;-75
2022/05/18 06:05:33;;;;;;;8.00;5.60;;;17.60;99.90;;;;;;6052412;23;20538;-76
2022/05/18 06:08:00;;;;;;;6.10;5.60;;;17.60;99.90;;;;;;6054202;23;20958;-76
2022/05/18 06:10:29;;;;;;;5.93;5.43;;;17.70;99.90;;;;;;6051797;23;20950;-76
2022/05/18 06:12:55;;;;;;;5.53;5.03;;;17.80;99.90;;;;;;6054386;23;20445;-75
2022/05/18 06:15:22;;;;;;;5.40;5.00;;;17.90;99.90;;;;;;6049654;23;20460;-75
2022/05/18 06:17:51;;;;;;;5.40;4.93;;;18.00;99.90;;;;;;6057937;23;20515;-76
2022/05/18 06:20:18;;;;;;;5.87;5.37;;;18.20;99.90;;;;;;6059544;23;20477;-76
2022/05/18 06:22:45;;;;;;;5.50;4.60;;;18.30;99.90;;;;;;6057595;23;20435;-76
2022/05/18 06:25:14;;;;;;;5.80;5.27;;;18.40;99.90;;;;;;6049652;23;20443;-76
2022/05/18 06:27:41;;;;;;;6.03;5.43;;;18.50;99.90;;;;;;6047469;23;20852;-76
2022/05/18 06:30:10;;;;;;;5.50;5.00;;;18.60;99.90;;;;;;6059797;23;20444;-76
2022/05/18 06:32:37;;;;;;;5.87;5.27;;;18.60;99.90;;;;;;6052034;23;20982;-76
2022/05/18 06:35:07;;;;;;;5.27;4.77;;;18.80;99.90;;;;;;6052324;23;20432;-76
2022/05/18 06:37:34;;;;;;;5.53;4.80;;;18.80;99.90;;;;;;6050308;23;20459;-75
2022/05/18 06:40:04;;;;;;;6.00;5.40;;;18.90;99.90;;;;;;6052440;23;20446;-75
2022/05/18 06:42:31;;;;;;;5.20;4.70;;;19.00;99.90;;;;;;6047756;23;20550;-75
2022/05/18 06:44:59;;;;;;;5.43;4.47;;;19.10;99.90;;;;;;6048674;23;20527;-75
2022/05/18 06:47:26;;;;;;;4.73;4.30;;;19.30;99.90;;;;;;6056992;23;20439;-75
2022/05/18 06:49:54;;;;;;;4.90;4.50;;;19.40;99.90;;;;;;6052950;23;20510;-75
2022/05/18 06:52:22;;;;;;;5.00;4.60;;;19.50;99.90;;;;;;6054536;23;20480;-75
2022/05/18 06:54:50;;;;;;;5.10;4.60;;;19.50;99.90;;;;;;6050306;23;20549;-75
2022/05/18 06:57:18;;;;;;;5.33;4.87;;;19.60;99.90;;;;;;6056012;23;20471;-75
2022/05/18 06:59:45;;;;;;;5.23;4.50;;;19.80;99.90;;;;;;6057212;23;20436;-76
2022/05/18 07:02:12;;;;;;;4.87;4.37;;;19.90;99.90;;;;;;6055665;23;20461;-76
2022/05/18 07:04:39;;;;;;;4.83;4.33;;;20.10;99.90;;;;;;6053587;23;20454;-76
2022/05/18 07:07:06;;;;;;;5.50;4.10;;;20.30;99.90;;;;;;6059396;23;20462;-76
2022/05/18 07:09:35;;;;;;;4.90;4.37;;;20.50;99.90;;;;;;6050370;23;20473;-76
2022/05/18 07:12:01;;;;;;;5.40;4.53;;;20.70;99.90;;;;;;6053209;23;20677;-76
2022/05/18 07:14:30;;;;;;;4.60;4.17;;;20.90;99.90;;;;;;6050359;23;20453;-76
2022/05/18 07:16:58;;;;;;;5.00;4.60;;;21.00;99.90;;;;;;6043309;23;20873;-75
2022/05/18 07:19:29;;;;;;;5.70;4.23;;;21.20;99.90;;;;;;6057362;23;20518;-76
2022/05/18 07:21:56;;;;;;;5.10;3.90;;;21.30;99.90;;;;;;6052748;23;20459;-76
2022/05/18 07:24:23;;;;;;;4.50;4.10;;;21.80;99.90;;;;;;6057432;23;20517;-76
2022/05/18 07:26:51;;;;;;;3.90;3.60;;;22.20;99.90;;;;;;6054008;23;20729;-76
2022/05/18 07:29:18;;;;;;;4.60;4.03;;;22.80;99.90;;;;;;6050626;23;20444;-76
2022/05/18 07:34:30;;;;;;;3.87;3.57;;;23.80;99.90;;;;;;6051833;23;20436;-76
2022/05/18 07:36:57;;;;;;;3.87;3.57;;;24.20;99.90;;;;;;6055780;23;20473;-76
2022/05/18 07:39:28;;;;;;;4.73;3.60;;;24.60;99.90;;;;;;6058121;23;20524;-77
2022/05/18 07:41:56;;;;;;;3.67;3.37;;;25.00;99.90;;;;;;6054917;23;20538;-77
2022/05/18 07:44:24;;;;;;;3.80;3.53;;;25.30;99.90;;;;;;6058907;23;20450;-77
2022/05/18 07:46:52;;;;;;;4.63;3.73;;;25.50;99.90;;;;;;6055316;23;21178;-77
2022/05/18 07:49:19;;;;;;;5.70;3.50;;;25.60;99.90;;;;;;6052019;23;20485;-77
2022/05/18 07:51:48;;;;;;;5.50;3.87;;;26.00;99.90;;;;;;6060242;23;20549;-75
2022/05/18 07:54:18;;;;;;;4.07;3.70;;;26.30;99.90;;;;;;6054651;23;20919;-75
2022/05/18 07:56:45;;;;;;;3.50;3.20;;;26.40;98.00;;;;;;6048367;23;20471;-75
2022/05/18 07:59:14;;;;;;;4.27;3.50;;;26.60;97.80;;;;;;6056107;23;20470;-75
2022/05/18 08:01:42;;;;;;;7.30;4.03;;;26.60;97.80;;;;;;6059176;23;20455;-75
2022/05/18 08:04:10;;;;;;;3.90;3.50;;;27.00;97.10;;;;;;6057612;23;20448;-77
2022/05/18 08:06:38;;;;;;;3.43;3.13;;;27.20;96.00;;;;;;6046565;23;20448;-78
2022/05/18 08:09:06;;;;;;;4.47;3.50;;;27.30;95.90;;;;;;6056324;23;20842;-77
2022/05/18 08:17:14;;;;;;;6.63;3.47;;;27.70;93.90;;;;;;6052851;23;20542;-77
2022/05/18 08:19:42;;;;;;;3.87;3.57;;;27.90;93.20;;;;;;6039028;23;20432;-77
2022/05/18 08:22:09;;;;;;;3.13;2.93;;;28.00;93.10;;;;;;6046822;23;20566;-77
2022/05/18 08:24:36;;;;;;;3.53;3.20;;;28.00;93.60;;;;;;6059797;23;20530;-77
2022/05/18 08:27:04;;;;;;;3.83;3.47;;;27.90;92.60;;;;;;6050324;23;20463;-78
2022/05/18 08:29:35;;;;;;;3.73;3.43;;;28.10;92.40;;;;;;6062647;23;20515;-78
2022/05/18 08:32:02;;;;;;;3.40;3.10;;;28.10;92.20;;;;;;6048670;23;20518;-78
2022/05/18 08:34:30;;;;;;;3.50;3.20;;;28.60;91.70;;;;;;6055697;23;20518;-78
2022/05/18 08:36:58;;;;;;;3.63;3.27;;;28.90;91.50;;;;;;6053186;23;20478;-78
2022/05/18 08:39:24;;;;;;;5.00;3.20;;;29.10;90.60;;;;;;6049546;23;20443;-78
2022/05/18 08:41:52;;;;;;;3.50;3.20;;;29.00;90.20;;;;;;6052046;23;20630;-78
2022/05/18 08:44:25;;;;;;;4.37;3.97;;;29.20;89.80;;;;;;6059826;23;20966;-78
2022/05/18 08:47:08;;;;;;;3.77;3.03;;;29.40;87.80;;;;;;6058353;23;21021;-78
2022/05/18 08:49:46;;;;;;;4.03;3.20;;;29.80;87.70;;;;;;6061435;23;20427;-78
2022/05/18 08:52:40;;;;;;;3.40;3.10;;;30.10;86.80;;;;;;6057125;23;20459;-78
2022/05/18 08:55:35;;;;;;;3.87;3.40;;;30.10;88.10;;;;;;6047367;23;20458;-78
2022/05/18 08:58:04;;;;;;;3.13;2.90;;;30.50;85.90;;;;;;6050674;23;20474;-78
2022/05/18 09:00:35;;;;;;;4.10;3.20;;;31.00;82.90;;;;;;6051260;23;20558;-78
2022/05/18 09:03:10;;;;;;;4.40;3.63;;;31.00;81.80;;;;;;6053947;23;20431;-78
2022/05/18 09:05:43;;;;;;;6.37;3.50;;;31.20;80.60;;;;;;6058574;23;20474;-78
2022/05/18 09:08:14;;;;;;;4.43;3.53;;;31.10;79.40;;;;;;6052991;23;20435;-78
2022/05/18 09:10:47;;;;;;;3.10;2.80;;;31.30;78.70;;;;;;6050604;23;20465;-78
2022/05/18 09:13:14;;;;;;;3.40;3.10;;;31.40;78.70;;;;;;6049839;23;20440;-78
2022/05/18 09:15:51;;;;;;;3.47;3.17;;;31.60;76.70;;;;;;6060815;23;20494;-78
2022/05/18 09:18:27;;;;;;;3.70;3.40;;;31.50;76.70;;;;;;6061405;23;20534;-78
2022/05/18 09:21:05;;;;;;;3.63;3.33;;;31.50;75.30;;;;;;6060099;23;20498;-78
2022/05/18 09:23:44;;;;;;;3.10;2.80;;;31.70;75.10;;;;;;6059308;23;20515;-78
2022/05/18 09:26:33;;;;;;;3.27;2.97;;;31.70;74.20;;;;;;6051795;23;20940;-79
2022/05/18 09:29:09;;;;;;;3.50;3.20;;;32.30;73.40;;;;;;6054847;23;20534;-76
2022/05/18 09:31:58;;;;;;;2.97;2.77;;;32.60;70.90;;;;;;6057848;23;21942;-76
2022/05/18 09:34:48;;;;;;;4.00;3.03;;;32.60;67.80;;;;;;6059660;23;20443;-76
2022/05/18 09:37:27;;;;;;;3.30;2.97;;;32.40;66.80;;;;;;6051780;23;20505;-75
2022/05/18 09:40:06;;;;;;;3.00;2.80;;;32.80;66.60;;;;;;6048323;23;20489;-78
2022/05/18 09:42:36;;;;;;;3.07;2.80;;;33.40;63.80;;;;;;6059429;23;20439;-78
2022/05/18 09:45:07;;;;;;;3.60;3.07;;;33.60;63.80;;;;;;6060966;23;20534;-78
2022/05/18 09:47:38;;;;;;;2.67;2.43;;;33.50;63.60;;;;;;6058709;23;20846;-78
2022/05/18 09:50:09;;;;;;;3.20;2.63;;;33.20;61.50;;;;;;6056833;23;20538;-77
2022/05/18 09:52:39;;;;;;;2.67;2.53;;;33.40;62.20;;;;;;6053795;23;20443;-78
2022/05/18 09:55:09;;;;;;;3.70;2.90;;;33.50;62.50;;;;;;6055602;23;20438;-77
2022/05/18 09:57:43;;;;;;;3.00;2.70;;;33.30;60.80;;;;;;6058365;23;21216;-77
2022/05/18 10:00:13;;;;;;;2.97;2.63;;;33.40;60.90;;;;;;6046754;23;20459;-77
2022/05/18 10:08:16;;;;;;;3.47;2.57;;;33.00;59.90;;;;;;6034062;23;20631;-83
2022/05/18 10:10:44;;;;;;;3.03;2.73;;;32.80;59.30;;;;;;6033002;23;20551;-86
2022/05/18 10:13:15;;;;;;;2.50;2.30;;;33.40;60.70;;;;;;6028282;23;20450;-86
2022/05/18 10:15:44;;;;;;;2.70;2.47;;;33.40;57.60;;;;;;6025487;23;20463;-81
2022/05/18 10:18:19;;;;;;;2.93;2.73;;;33.00;57.90;;;;;;6023949;23;20566;-86
2022/05/18 10:21:06;;;;;;;2.87;2.67;;;33.10;59.60;;;;;;6020685;23;21589;-86
2022/05/18 10:23:39;;;;;;;2.70;2.40;;;33.20;58.50;;;;;;6024828;23;20440;-88
2022/05/18 10:26:11;;;;;;;2.57;2.40;;;33.10;58.40;;;;;;6025820;23;20428;-89
2022/05/18 10:28:43;;;;;;;2.40;2.20;;;33.10;57.00;;;;;;6032265;23;20449;-93
2022/05/18 10:31:26;;;;;;;2.73;2.50;;;33.10;58.30;;;;;;6027428;23;21042;-89
2022/05/18 10:34:18;;;;;;;2.90;2.60;;;32.50;58.20;;;;;;6026535;23;20444;-90
2022/05/18 10:36:50;;;;;;;2.47;2.27;;;32.30;58.20;;;;;;6030350;23;20468;-89
2022/05/18 10:39:37;;;;;;;3.03;2.50;;;32.10;58.80;;;;;;6022350;23;20792;-88
2022/05/18 10:42:14;;;;;;;2.43;2.30;;;32.70;59.40;;;;;;6026645;23;20444;-89
2022/05/18 10:44:43;;;;;;;2.87;2.67;;;32.80;57.90;;;;;;6022498;23;21014;-89
2022/05/18 10:47:20;;;;;;;3.93;2.53;;;32.70;58.80;;;;;;6029479;23;20468;-89
2022/05/18 10:49:47;;;;;;;3.43;3.00;;;32.80;57.80;;;;;;6014687;23;20812;-89
2022/05/18 10:52:18;;;;;;;4.17;2.67;;;32.60;58.40;;;;;;6024064;23;20440;-88
2022/05/18 10:54:57;;;;;;;2.80;2.60;;;32.50;57.70;;;;;;6029241;23;21042;-89
2022/05/18 10:57:32;;;;;;;2.90;2.70;;;32.70;57.70;;;;;;6029884;23;20543;-89
2022/05/18 11:00:06;;;;;;;3.10;2.50;;;32.70;58.50;;;;;;6029852;23;20488;-89
2022/05/18 11:02:41;;;;;;;3.27;2.97;;;32.80;57.70;;;;;;6026663;23;20436;-89
2022/05/18 11:05:19;;;;;;;2.50;2.30;;;32.90;56.40;;;;;;6033692;23;20456;-90
2022/05/18 11:07:50;;;;;;;2.53;2.33;;;33.30;56.80;;;;;;6027079;23;20847;-87
2022/05/18 11:10:17;;;;;;;2.50;2.30;;;33.20;55.10;;;;;;6035446;23;20456;-89
2022/05/18 11:12:51;;;;;;;2.47;2.27;;;33.40;54.30;;;;;;6019832;23;20472;-88
2022/05/18 11:15:27;;;;;;;2.60;2.40;;;33.50;55.40;;;;;;6022086;23;20451;-89
2022/05/18 11:18:09;;;;;;;2.20;2.10;;;33.40;54.00;;;;;;6031398;23;20436;-89
2022/05/18 11:20:55;;;;;;;2.20;2.00;;;33.30;53.70;;;;;;6029841;23;20544;-90
2022/05/18 11:23:35;;;;;;;2.10;1.90;;;33.30;54.70;;;;;;6040805;23;20431;-89
2022/05/18 11:26:14;;;;;;;2.57;2.43;;;33.00;54.00;;;;;;6024990;23;20537;-87
2022/05/18 11:28:54;;;;;;;1.90;1.80;;;32.60;53.00;;;;;;6026693;23;20436;-89
2022/05/18 11:31:43;;;;;;;3.90;2.50;;;32.60;52.80;;;;;;6028629;23;20455;-88
2022/05/18 11:34:19;;;;;;;2.37;2.13;;;32.60;54.40;;;;;;6022280;23;20475;-89
2022/05/18 11:36:55;;;;;;;1.80;1.70;;;32.30;55.10;;;;;;6024986;23;20447;-88
2022/05/18 11:39:32;;;;;;;2.20;2.00;;;32.40;53.40;;;;;;6028648;23;20474;-88
2022/05/18 11:42:15;;;;;;;2.27;2.07;;;32.50;54.30;;;;;;6024426;23;20443;-89
2022/05/18 11:44:52;;;;;;;2.80;2.27;;;33.00;54.30;;;;;;6025655;23;20474;-87
2022/05/18 11:47:50;;;;;;;2.10;2.00;;;33.50;52.40;;;;;;6027508;23;20432;-88
2022/05/18 11:50:27;;;;;;;2.30;2.17;;;33.80;51.50;;;;;;5978221;23;20495;-88
2022/05/18 11:53:07;;;;;;;2.33;2.13;;;33.50;50.60;;;;;;6029384;23;20452;-90
2022/05/18 11:55:48;;;;;;;2.43;2.10;;;33.40;50.90;;;;;;6030978;23;20519;-89
2022/05/18 11:58:26;;;;;;;4.90;2.37;;;33.40;51.80;;;;;;6026161;23;21053;-88
2022/05/18 12:01:01;;;;;;;2.23;2.00;;;33.10;52.20;;;;;;6028552;23;20468;-87
2022/05/18 12:03:48;;;;;;;2.00;1.90;;;33.10;52.90;;;;;;6031173;23;20445;-87
2022/05/18 12:06:34;;;;;;;2.20;2.00;;;32.80;51.90;;;;;;6026753;23;20927;-90
2022/05/18 12:09:17;;;;;;;1.90;1.80;;;32.90;52.80;;;;;;6029736;23;20447;-89
2022/05/18 12:11:54;;;;;;;2.23;2.10;;;33.10;52.60;;;;;;6032649;23;20442;-87
2022/05/18 12:14:35;;;;;;;1.90;1.80;;;33.50;51.20;;;;;;6029865;23;20531;-89
2022/05/18 12:17:06;;;;;;;2.10;1.80;;;33.00;51.70;;;;;;6032121;23;20444;-90
2022/05/18 12:19:42;;;;;;;2.27;2.07;;;32.40;53.00;;;;;;6028616;23;20467;-85
2022/05/18 12:22:13;;;;;;;2.90;1.80;;;32.40;51.90;;;;;;6011585;23;20930;-85
2022/05/18 12:24:44;;;;;;;4.97;2.33;;;32.10;52.30;;;;;;6022209;23;20448;-85
2022/05/18 12:27:15;;;;;;;2.40;1.90;;;31.90;53.70;;;;;;6025134;23;20803;-88
2022/05/18 12:29:43;;;;;;;2.50;2.30;;;31.70;53.60;;;;;;6030885;23;21171;-88
2022/05/18 12:32:13;;;;;;;4.33;1.90;;;31.70;53.20;;;;;;6029183;23;20467;-87
2022/05/18 12:34:44;;;;;;;2.50;2.30;;;32.00;54.50;;;;;;6027289;23;20442;-88
2022/05/18 12:37:24;;;;;;;2.63;2.33;;;31.90;54.40;;;;;;6024296;23;20490;-87
2022/05/18 12:40:03;;;;;;;1.97;1.80;;;32.30;52.90;;;;;;6024049;23;20456;-88
2022/05/18 12:42:36;;;;;;;1.97;1.73;;;32.70;53.00;;;;;;6026608;23;20799;-88
2022/05/18 12:45:10;;;;;;;2.10;1.90;;;32.90;51.10;;;;;;6005275;23;21144;-85
2022/05/18 12:47:45;;;;;;;1.93;1.70;;;32.70;50.70;;;;;;6005303;23;20493;-87
2022/05/18 12:50:16;;;;;;;2.37;2.17;;;32.30;52.00;;;;;;6006276;23;20455;-87
2022/05/18 12:52:53;;;;;;;3.60;3.10;;;32.30;51.80;;;;;;6005802;23;20835;-88
2022/05/18 12:55:43;;;;;;;2.30;2.00;;;32.40;52.80;;;;;;6006842;23;20447;-88
2022/05/18 12:58:31;;;;;;;2.00;1.80;;;32.90;52.60;;;;;;6004211;23;20486;-88
2022/05/18 13:01:05;;;;;;;2.53;2.20;;;33.00;53.10;;;;;;6001530;23;20476;-87
2022/05/18 13:03:57;;;;;;;2.17;2.00;;;33.50;53.00;;;;;;6002394;23;20945;-88
2022/05/18 13:06:39;;;;;;;1.83;1.73;;;33.80;51.60;;;;;;6000505;23;20454;-86
2022/05/18 13:09:33;;;;;;;3.67;2.30;;;34.20;49.90;;;;;;5989378;23;20460;-87
2022/05/18 13:12:06;;;;;;;1.90;1.80;;;35.00;49.10;;;;;;6004201;23;20536;-86
2022/05/18 13:14:42;;;;;;;2.30;2.10;;;35.50;49.10;;;;;;5998916;23;20472;-85
2022/05/18 13:17:20;;;;;;;3.00;2.00;;;36.30;47.90;;;;;;6002896;23;22093;-86
2022/05/18 13:19:59;;;;;;;2.80;2.27;;;36.90;47.90;;;;;;6002750;23;20475;-92
2022/05/18 13:22:45;;;;;;;2.43;2.23;;;38.30;46.70;;;;;;6008195;23;20447;-86
2022/05/18 13:25:13;;;;;;;2.70;2.03;;;39.40;47.00;;;;;;5999691;23;20552;-86
2022/05/18 13:27:48;;;;;;;2.47;2.13;;;39.50;42.40;;;;;;5992918;23;20458;-85